createdAt,value
2024-05-09T00:00:18.199Z,15.58
2024-05-09T00:02:14.354Z,15.63
2024-05-09T00:04:06.479Z,15.65
2024-05-09T00:05:58.655Z,15.69
2024-05-09T00:07:50.511Z,15.34
2024-05-09T00:09:42.279Z,15.60
2024-05-09T00:11:35.320Z,15.58
2024-05-09T00:13:27.670Z,15.48
2024-05-09T00:15:19.437Z,15.56
2024-05-09T00:17:11.233Z,15.53
2024-05-09T00:19:03.618Z,15.45
2024-05-09T00:20:56.055Z,15.47
2024-05-09T00:22:47.977Z,15.47
2024-05-09T00:24:39.932Z,15.36
2024-05-09T00:26:35.680Z,15.49
2024-05-09T00:28:27.482Z,15.58
2024-05-09T00:30:27.791Z,15.52
2024-05-09T00:32:25.053Z,15.59
2024-05-09T00:34:16.986Z,15.60
2024-05-09T00:36:09.016Z,15.54
2024-05-09T00:38:01.000Z,15.55
2024-05-09T00:39:52.975Z,15.45
2024-05-09T00:41:44.852Z,15.55
2024-05-09T00:43:36.680Z,15.49
2024-05-09T00:45:28.412Z,15.56
2024-05-09T00:47:20.366Z,15.59
2024-05-09T00:49:12.474Z,15.55
2024-05-09T00:51:07.535Z,15.52
2024-05-09T00:53:00.591Z,15.52
2024-05-09T00:54:53.234Z,15.54
2024-05-09T00:56:45.579Z,15.56
2024-05-09T00:58:41.977Z,15.38
2024-05-09T01:00:39.069Z,15.57
2024-05-09T01:02:32.924Z,15.43
2024-05-09T01:04:24.953Z,15.55
2024-05-09T01:06:16.723Z,15.59
2024-05-09T01:08:09.355Z,15.44
2024-05-09T01:10:01.556Z,15.47
2024-05-09T01:11:57.998Z,15.63
2024-05-09T01:13:49.768Z,15.62
2024-05-09T01:15:41.733Z,15.67
2024-05-09T01:17:34.174Z,15.63
2024-05-09T01:19:40.209Z,15.67
2024-05-09T01:21:32.228Z,15.75
2024-05-09T01:23:26.900Z,15.67
2024-05-09T01:25:18.628Z,15.67
2024-05-09T01:27:10.787Z,15.72
2024-05-09T01:29:02.600Z,15.78
2024-05-09T06:57:51.079Z,15.24
2024-05-09T06:59:23.407Z,15.37
2024-05-09T07:00:55.359Z,15.31
2024-05-09T07:02:27.271Z,15.29
2024-05-09T07:03:59.501Z,15.40
2024-05-09T07:05:31.429Z,15.46
2024-05-09T07:07:04.447Z,15.39
2024-05-09T07:08:36.356Z,15.31
2024-05-09T07:10:12.272Z,15.34
2024-05-09T07:11:46.863Z,15.28
2024-05-09T07:13:18.772Z,15.19
2024-05-09T07:15:10.751Z,15.19
2024-05-09T07:17:02.608Z,15.10
2024-05-09T07:18:54.625Z,15.05
2024-05-09T07:20:47.017Z,15.12
2024-05-09T07:22:39.109Z,15.13
2024-05-09T07:24:30.827Z,15.17
2024-05-09T07:26:22.618Z,15.15
2024-05-09T07:28:14.568Z,15.20
2024-05-09T07:30:07.345Z,15.18
2024-05-09T07:31:59.183Z,15.26
2024-05-09T07:33:51.283Z,15.33
2024-05-09T07:35:43.100Z,15.34
2024-05-09T07:37:34.898Z,15.24
2024-05-09T07:39:26.637Z,15.30
2024-05-09T07:41:18.416Z,15.34
2024-05-09T07:43:10.166Z,15.34
2024-05-09T07:45:21.050Z,15.38
2024-05-09T07:48:28.029Z,15.37
2024-05-09T07:54:29.803Z,15.29
2024-05-09T07:56:01.940Z,15.22
2024-05-09T07:57:33.849Z,15.22
2024-05-09T07:59:05.693Z,15.34
2024-05-09T08:00:37.539Z,15.30
2024-05-09T08:02:09.729Z,15.30
2024-05-09T08:03:41.753Z,15.30
2024-05-09T08:05:14.203Z,15.21
2024-05-09T08:06:46.221Z,15.23
2024-05-09T08:08:18.105Z,15.15
2024-05-09T08:09:49.962Z,15.24
2024-05-09T08:11:21.943Z,15.28
2024-05-09T08:12:54.129Z,15.13
2024-05-09T08:14:26.003Z,15.23
2024-05-09T08:15:58.040Z,15.32
2024-05-09T08:17:29.897Z,15.28
2024-05-09T08:19:01.945Z,15.36
2024-05-09T08:20:35.428Z,15.45
2024-05-09T08:22:07.799Z,15.54
2024-05-09T08:23:39.564Z,15.57
2024-05-09T08:25:13.541Z,15.47
2024-05-09T08:26:45.814Z,15.53
2024-05-09T08:28:17.821Z,15.57
2024-05-09T08:29:49.750Z,15.46
2024-05-09T08:31:21.621Z,15.40
2024-05-09T08:32:53.549Z,15.33
2024-05-09T08:34:45.755Z,15.14
2024-05-09T08:36:37.616Z,15.03
2024-05-09T08:38:29.525Z,14.80
2024-05-09T08:40:30.544Z,14.83
2024-05-09T08:42:28.255Z,14.86
2024-05-09T08:44:20.691Z,14.83
2024-05-09T08:46:12.473Z,14.77
2024-05-09T08:48:06.478Z,14.79
2024-05-09T08:49:58.802Z,14.73
2024-05-09T08:51:50.902Z,14.69
2024-05-09T08:53:42.739Z,14.57
2024-05-09T08:55:35.870Z,14.43
2024-05-09T08:57:29.293Z,14.48
2024-05-09T08:59:25.137Z,14.46
2024-05-09T09:01:17.702Z,14.21
2024-05-09T09:03:10.871Z,14.17
2024-05-09T09:05:10.311Z,14.07
2024-05-09T09:07:04.107Z,13.97
2024-05-09T09:08:59.237Z,13.95
2024-05-09T09:10:51.020Z,13.96
2024-05-09T09:12:42.825Z,13.87
2024-05-09T09:14:34.603Z,13.73
2024-05-09T09:16:26.613Z,13.65
2024-05-09T09:18:19.828Z,13.41
2024-05-09T09:20:16.441Z,13.36
2024-05-09T09:22:11.204Z,13.17
2024-05-09T09:24:03.502Z,13.08
2024-05-09T09:25:55.273Z,13.06
2024-05-09T09:27:52.926Z,13.04
2024-05-09T09:29:45.377Z,12.99
2024-05-09T09:31:39.160Z,13.10
2024-05-09T09:33:32.187Z,13.04
2024-05-09T09:35:24.579Z,13.01
2024-05-09T09:37:30.739Z,13.00
2024-05-09T09:39:22.908Z,12.86
2024-05-09T09:41:14.757Z,12.97
2024-05-09T09:43:09.756Z,12.94
2024-05-09T09:45:05.223Z,12.97
2024-05-09T09:46:58.858Z,13.00
2024-05-09T09:48:55.894Z,12.97
2024-05-09T09:50:48.548Z,13.05
2024-05-09T09:52:41.506Z,13.11
2024-05-09T09:54:33.836Z,13.17
2024-05-09T09:56:27.710Z,13.27
2024-05-09T09:58:20.450Z,13.34
2024-05-09T10:00:20.733Z,13.28
2024-05-09T10:02:16.092Z,13.37
2024-05-09T10:04:08.283Z,13.39
2024-05-09T10:06:00.824Z,13.34
2024-05-09T10:07:54.576Z,13.33
2024-05-09T10:09:46.844Z,13.37
2024-05-09T10:11:45.594Z,13.44
2024-05-09T10:13:41.235Z,13.53
2024-05-09T10:15:33.076Z,13.61
2024-05-09T10:17:25.569Z,13.72
2024-05-09T10:19:17.662Z,13.80
2024-05-09T10:21:09.578Z,13.72
2024-05-09T10:23:07.200Z,13.68
2024-05-09T10:25:12.856Z,13.64
2024-05-09T10:27:12.062Z,13.59
2024-05-09T10:29:03.827Z,13.65
2024-05-09T10:30:55.809Z,13.69
2024-05-09T10:32:48.666Z,13.65
2024-05-09T10:34:41.989Z,13.69
2024-05-09T10:36:46.579Z,13.69
2024-05-09T10:38:38.592Z,13.77
2024-05-09T10:40:36.280Z,13.74
2024-05-09T10:42:30.230Z,13.89
2024-05-09T10:44:22.075Z,13.90
2024-05-09T10:46:13.974Z,13.73
2024-05-09T10:48:06.078Z,13.96
2024-05-09T10:49:59.208Z,14.05
2024-05-09T10:51:51.139Z,14.17
2024-05-09T10:53:42.950Z,14.09
2024-05-09T10:55:34.972Z,13.95
2024-05-09T10:57:27.469Z,13.82
2024-05-09T10:59:19.275Z,13.89
2024-05-09T11:01:11.649Z,13.78
2024-05-09T11:03:03.783Z,13.81
2024-05-09T11:04:56.994Z,13.89
2024-05-09T11:06:49.197Z,13.92
2024-05-09T11:08:41.855Z,13.93
2024-05-09T11:10:34.679Z,14.02
2024-05-09T11:12:27.240Z,13.90
2024-05-09T11:14:18.955Z,13.90
2024-05-09T11:16:10.807Z,13.89
2024-05-09T11:18:02.679Z,13.77
2024-05-09T11:19:58.213Z,13.72
2024-05-09T11:21:50.041Z,13.78
2024-05-09T11:23:43.569Z,13.72
2024-05-09T11:25:35.466Z,13.70
2024-05-09T11:27:27.235Z,13.72
2024-05-09T11:29:19.821Z,13.81
2024-05-09T11:31:11.824Z,13.82
2024-05-09T11:33:03.890Z,13.88
2024-05-09T11:34:55.996Z,13.82
2024-05-09T11:36:47.785Z,13.68
2024-05-09T11:38:39.637Z,13.71
2024-05-09T11:42:23.841Z,13.73
2024-05-09T11:44:15.568Z,13.87
2024-05-09T11:46:07.326Z,13.87
2024-05-09T11:47:59.930Z,14.01
2024-05-09T11:49:51.880Z,13.85
2024-05-09T11:51:43.739Z,14.07
2024-05-09T11:53:35.517Z,13.79
2024-05-09T11:55:28.540Z,13.91
2024-05-09T11:57:20.513Z,13.95
2024-05-09T11:59:12.447Z,14.07
2024-05-09T12:01:04.552Z,14.15
2024-05-09T12:02:56.480Z,14.22
2024-05-09T12:04:48.415Z,14.35
2024-05-09T12:06:40.829Z,14.36
2024-05-09T12:08:32.707Z,14.18
2024-05-09T12:10:32.564Z,14.33
2024-05-09T12:12:26.994Z,14.36
2024-05-09T12:14:18.723Z,14.29
2024-05-09T12:16:10.518Z,14.12
2024-05-09T12:18:03.913Z,14.24
2024-05-09T12:19:57.043Z,14.19
2024-05-09T12:21:48.853Z,14.27
2024-05-09T12:23:40.666Z,14.41
2024-05-09T12:25:32.488Z,14.46
2024-05-09T12:27:24.993Z,14.32
2024-05-09T12:29:16.710Z,14.45
2024-05-09T12:31:08.454Z,14.53
2024-05-09T12:33:00.306Z,14.49
2024-05-09T12:34:52.135Z,14.58
2024-05-09T12:36:43.928Z,14.65
2024-05-09T12:38:35.722Z,14.61
2024-05-09T12:40:35.555Z,14.59
2024-05-09T12:42:31.351Z,14.46
2024-05-09T12:44:25.155Z,14.33
2024-05-09T12:46:16.937Z,14.46
2024-05-09T12:48:08.977Z,14.44
2024-05-09T12:50:00.907Z,14.33
2024-05-09T12:51:52.686Z,14.37
2024-05-09T12:53:44.669Z,14.27
2024-05-09T12:55:44.111Z,14.29
2024-05-09T12:57:40.858Z,14.33
2024-05-09T12:59:32.641Z,14.30
2024-05-09T13:01:24.655Z,14.31
2024-05-09T13:03:16.690Z,14.33
2024-05-09T13:05:08.814Z,14.43
2024-05-09T13:07:00.769Z,14.39
2024-05-09T13:08:52.705Z,14.30
2024-05-09T13:10:44.940Z,14.22
2024-05-09T13:12:36.723Z,14.04
2024-05-09T13:14:28.494Z,13.90
2024-05-09T13:16:20.461Z,13.74
2024-05-09T13:18:12.482Z,13.59
2024-05-09T13:20:05.525Z,13.64
2024-05-09T13:21:58.793Z,13.63
2024-05-09T13:23:50.515Z,13.59
2024-05-09T13:25:42.243Z,13.59
2024-05-09T13:27:34.148Z,13.62
2024-05-09T13:29:25.914Z,13.65
2024-05-09T13:31:17.838Z,13.75
2024-05-09T13:33:10.680Z,13.67
2024-05-09T13:35:03.315Z,13.76
2024-05-09T13:36:55.231Z,13.77
2024-05-09T13:38:47.332Z,13.80
2024-05-09T13:40:39.146Z,13.75
2024-05-09T13:42:31.000Z,13.78
2024-05-09T13:44:23.691Z,13.86
2024-05-09T13:46:15.647Z,13.81
2024-05-09T13:48:07.607Z,13.82
2024-05-09T13:49:59.539Z,13.71
2024-05-09T13:51:51.305Z,13.77
2024-05-09T13:53:43.100Z,13.81
2024-05-09T13:55:34.929Z,13.86
2024-05-09T13:57:26.825Z,13.81
2024-05-09T13:59:18.757Z,13.82
2024-05-09T14:01:10.722Z,13.87
2024-05-09T14:03:02.730Z,13.89
2024-05-09T14:04:54.696Z,13.87
2024-05-09T14:06:46.727Z,13.91
2024-05-09T14:08:38.786Z,13.93
2024-05-09T14:10:31.977Z,13.85
2024-05-09T14:12:24.656Z,13.92
2024-05-09T14:14:16.452Z,13.85
2024-05-09T14:16:08.639Z,13.74
2024-05-09T14:18:00.568Z,13.79
2024-05-09T14:19:52.359Z,13.78
2024-05-09T14:21:44.136Z,13.75
2024-05-09T14:23:38.264Z,13.68
2024-05-09T14:25:30.052Z,13.64
2024-05-09T14:27:21.916Z,13.63
2024-05-09T14:29:14.057Z,13.55
2024-05-09T14:31:05.936Z,13.50
2024-05-09T14:32:57.756Z,13.53
2024-05-09T14:34:50.660Z,13.38
2024-05-09T14:36:42.592Z,13.56
2024-05-09T14:38:34.434Z,13.60
2024-05-09T14:40:37.021Z,13.58
2024-05-09T14:42:33.839Z,13.56
2024-05-09T14:44:25.796Z,13.60
2024-05-09T14:46:17.656Z,13.62
2024-05-09T14:48:09.999Z,13.58
2024-05-09T14:50:02.231Z,13.39
2024-05-09T14:51:54.613Z,13.44
2024-05-09T14:53:46.330Z,13.36
2024-05-09T14:55:38.383Z,13.40
2024-05-09T14:57:30.417Z,13.28
2024-05-09T14:59:22.265Z,13.37
2024-05-09T15:01:14.133Z,13.35
2024-05-09T15:03:05.993Z,13.35
2024-05-09T15:04:57.912Z,13.30
2024-05-09T15:06:49.854Z,13.25
2024-05-09T15:08:41.648Z,13.20
2024-05-09T15:10:35.909Z,13.13
2024-05-09T15:12:28.946Z,13.24
2024-05-09T15:14:20.681Z,13.10
2024-05-09T15:16:12.651Z,13.03
2024-05-09T15:18:05.293Z,13.15
2024-05-09T15:19:57.509Z,13.10
2024-05-09T15:22:08.389Z,13.13
2024-05-09T15:24:00.315Z,13.06
2024-05-09T15:25:55.854Z,13.20
2024-05-09T15:27:47.949Z,13.24
2024-05-09T15:29:39.717Z,13.25
2024-05-09T15:31:31.614Z,13.28
2024-05-09T15:33:23.623Z,13.12
2024-05-09T15:35:15.955Z,13.24
2024-05-09T15:37:07.858Z,13.28
2024-05-09T15:38:59.620Z,13.23
2024-05-09T15:40:51.572Z,13.30
2024-05-09T15:42:43.527Z,13.31
2024-05-09T15:44:35.321Z,13.29
2024-05-09T15:46:27.560Z,13.30
2024-05-09T15:48:19.640Z,13.25
2024-05-09T15:50:20.252Z,13.15
2024-05-09T15:52:19.668Z,13.15
2024-05-09T15:54:11.464Z,13.16
2024-05-09T15:56:03.335Z,13.21
2024-05-09T15:57:55.148Z,13.20
2024-05-09T15:59:47.119Z,13.19
2024-05-09T16:01:38.899Z,13.15
2024-05-09T16:03:31.571Z,13.20
2024-05-09T16:05:23.732Z,13.24
2024-05-09T16:07:15.611Z,13.20
2024-05-09T16:09:07.365Z,13.23
2024-05-09T16:11:00.509Z,13.17
2024-05-09T16:12:52.482Z,13.25
2024-05-09T16:14:44.214Z,13.23
2024-05-09T16:16:36.336Z,13.20
2024-05-09T16:18:28.387Z,13.25
2024-05-09T16:20:33.231Z,13.22
2024-05-09T16:22:30.447Z,13.08
2024-05-09T16:24:22.159Z,13.10
2024-05-09T16:26:14.074Z,13.06
2024-05-09T16:28:09.078Z,13.08
2024-05-09T16:30:04.121Z,13.09
2024-05-09T16:31:58.676Z,13.00
2024-05-09T16:33:50.661Z,12.98
2024-05-09T16:35:42.479Z,12.86
2024-05-09T16:37:34.333Z,12.82
2024-05-09T16:39:26.189Z,12.78
2024-05-09T16:41:17.934Z,12.79
2024-05-09T16:43:10.456Z,12.74
2024-05-09T16:45:02.620Z,12.69
2024-05-09T16:46:54.555Z,12.66
2024-05-09T16:48:46.424Z,12.75
2024-05-09T16:50:38.218Z,12.69
2024-05-09T16:52:29.938Z,12.71
2024-05-09T16:54:21.919Z,12.72
2024-05-09T16:56:13.805Z,12.61
2024-05-09T16:58:05.756Z,12.56
2024-05-09T16:59:57.577Z,12.68
2024-05-09T17:01:49.400Z,12.69
2024-05-09T17:03:42.827Z,12.66
2024-05-09T17:05:35.381Z,12.46
2024-05-09T17:07:27.602Z,12.55
2024-05-09T17:09:20.157Z,12.55
2024-05-09T17:11:12.378Z,12.61
2024-05-09T17:13:05.289Z,12.64
2024-05-09T17:14:58.678Z,12.63
2024-05-09T17:16:50.526Z,12.62
2024-05-09T17:18:42.434Z,12.61
2024-05-09T17:20:36.699Z,12.51
2024-05-09T17:22:29.383Z,12.53
2024-05-09T17:24:21.168Z,12.57
2024-05-09T17:26:13.030Z,12.63
2024-05-09T17:28:05.030Z,12.54
2024-05-09T17:29:57.257Z,12.37
2024-05-09T17:31:48.992Z,12.52
2024-05-09T17:33:40.876Z,12.57
2024-05-09T17:35:33.061Z,12.56
2024-05-09T17:37:24.979Z,12.61
2024-05-09T17:39:16.796Z,12.53
2024-05-09T17:41:08.673Z,12.56
2024-05-09T17:43:00.571Z,12.63
2024-05-09T17:44:52.414Z,12.65
2024-05-09T17:46:44.447Z,12.49
2024-05-09T17:48:37.529Z,12.59
2024-05-09T17:52:24.387Z,12.63
2024-05-09T17:54:16.133Z,12.61
2024-05-09T17:56:07.963Z,12.61
2024-05-09T17:57:59.954Z,12.67
2024-05-09T17:59:51.799Z,12.69
2024-05-09T18:01:43.600Z,12.72
2024-05-09T18:03:35.705Z,12.72
2024-05-09T18:05:27.732Z,12.65
2024-05-09T18:07:19.798Z,12.71
2024-05-09T18:09:11.653Z,12.73
2024-05-09T18:11:03.484Z,12.72
2024-05-09T18:12:55.585Z,12.62
2024-05-09T18:14:48.084Z,12.68
2024-05-09T18:16:40.575Z,12.55
2024-05-09T18:18:33.038Z,12.52
2024-05-09T18:20:36.071Z,12.34
2024-05-09T18:22:33.394Z,12.55
2024-05-09T18:24:25.476Z,12.59
2024-05-09T18:26:17.651Z,12.63
2024-05-09T18:28:09.598Z,12.61
2024-05-09T18:30:01.425Z,12.64
2024-05-09T18:31:53.408Z,12.68
2024-05-09T18:33:45.554Z,12.70
2024-05-09T18:35:37.425Z,12.69
2024-05-09T18:37:29.350Z,12.61
2024-05-09T18:39:21.136Z,12.76
2024-05-09T18:41:13.813Z,12.79
2024-05-09T18:43:07.557Z,12.79
2024-05-09T18:45:00.622Z,12.75
2024-05-09T18:46:52.440Z,12.74
2024-05-09T18:48:44.437Z,12.75
2024-05-09T18:50:39.195Z,12.73
2024-05-09T18:52:32.954Z,12.71
2024-05-09T18:54:24.871Z,12.65
2024-05-09T18:56:16.705Z,12.54
2024-05-09T18:58:08.602Z,12.45
2024-05-09T19:00:00.494Z,12.35
2024-05-09T19:01:52.397Z,12.50
2024-05-09T19:03:44.690Z,12.43
2024-05-09T19:05:36.882Z,12.50
2024-05-09T19:07:28.861Z,12.52
2024-05-09T19:09:20.611Z,12.47
2024-05-09T19:11:12.501Z,12.50
2024-05-09T19:13:08.823Z,12.49
2024-05-09T19:15:03.789Z,12.44
2024-05-09T19:16:55.696Z,12.46
2024-05-09T19:18:47.619Z,12.40
2024-05-09T19:20:39.787Z,12.05
2024-05-09T19:22:32.048Z,12.36
2024-05-09T19:24:24.019Z,12.40
2024-05-09T19:26:15.747Z,12.46
2024-05-09T19:28:07.802Z,12.42
2024-05-09T19:29:59.593Z,12.43
2024-05-09T19:31:51.461Z,12.50
2024-05-09T19:33:43.612Z,12.49
2024-05-09T19:35:35.508Z,12.48
2024-05-09T19:37:27.267Z,12.52
2024-05-09T19:39:19.192Z,12.33
2024-05-09T19:41:10.946Z,12.44
2024-05-09T19:43:03.598Z,12.48
2024-05-09T19:44:55.932Z,12.46
2024-05-09T19:46:47.814Z,12.36
2024-05-09T19:48:40.687Z,12.31
2024-05-09T19:50:40.636Z,12.26
2024-05-09T19:52:35.533Z,12.31
2024-05-09T19:54:27.482Z,12.38
2024-05-09T19:56:19.388Z,12.35
2024-05-09T19:58:11.843Z,12.28
2024-05-09T20:00:05.898Z,12.27
2024-05-09T20:01:58.095Z,12.36
2024-05-09T20:03:50.220Z,12.43
2024-05-09T20:05:42.297Z,12.47
2024-05-09T20:07:36.315Z,12.52
2024-05-09T20:09:28.210Z,12.53
2024-05-09T20:11:20.029Z,12.37
2024-05-09T20:13:11.917Z,12.45
2024-05-09T20:15:03.691Z,12.50
2024-05-09T20:16:55.427Z,12.51
2024-05-09T20:18:47.766Z,12.44
2024-05-09T20:20:42.637Z,12.48
2024-05-09T20:22:35.944Z,12.36
2024-05-09T20:24:27.943Z,12.51
2024-05-09T20:26:19.720Z,12.48
2024-05-09T20:28:11.608Z,12.53
2024-05-09T20:30:07.978Z,12.45
2024-05-09T20:32:03.443Z,12.39
2024-05-09T20:33:55.339Z,12.46
2024-05-09T20:35:47.239Z,12.42
2024-05-09T20:37:39.217Z,12.48
2024-05-09T20:39:30.939Z,12.52
2024-05-09T20:41:22.742Z,12.38
2024-05-09T20:43:14.495Z,12.52
2024-05-09T20:45:06.313Z,12.52
2024-05-09T20:46:59.459Z,12.54
2024-05-09T20:48:51.317Z,12.56
2024-05-09T20:50:43.230Z,12.56
2024-05-09T20:52:35.225Z,12.53
2024-05-09T20:54:26.939Z,12.47
2024-05-09T20:56:18.659Z,12.49
2024-05-09T20:58:10.802Z,12.45
2024-05-09T21:00:03.357Z,12.45
2024-05-09T21:01:56.252Z,12.43
2024-05-09T21:03:48.334Z,12.41
2024-05-09T21:05:40.819Z,12.34
2024-05-09T21:07:32.899Z,12.43
2024-05-09T21:09:24.743Z,12.43
2024-05-09T21:11:16.467Z,12.44
2024-05-09T21:13:08.330Z,12.47
2024-05-09T21:15:00.233Z,12.52
2024-05-09T21:16:52.123Z,12.54
2024-05-09T21:18:44.004Z,12.53
2024-05-09T21:20:35.835Z,12.55
2024-05-09T21:22:27.620Z,12.56
2024-05-09T21:24:19.329Z,12.53
2024-05-09T21:26:11.101Z,12.46
2024-05-09T21:28:02.962Z,12.50
2024-05-09T21:29:54.743Z,12.52
2024-05-09T21:31:46.618Z,12.50
2024-05-09T21:33:38.657Z,12.49
2024-05-09T21:35:33.011Z,12.44
2024-05-09T21:37:25.038Z,12.55
2024-05-09T21:39:16.853Z,12.50
2024-05-09T21:41:08.598Z,12.43
2024-05-09T21:43:00.634Z,12.44
2024-05-09T21:44:52.659Z,12.34
2024-05-09T21:46:44.415Z,12.44
2024-05-09T21:48:36.508Z,12.53
2024-05-09T21:50:36.522Z,12.55
2024-05-09T21:52:32.266Z,12.50
2024-05-09T21:54:24.036Z,12.50
2024-05-09T21:56:15.875Z,12.51
2024-05-09T21:58:07.721Z,12.47
2024-05-09T21:59:59.532Z,12.38
2024-05-09T22:01:51.440Z,12.49
2024-05-09T22:03:43.442Z,12.49
2024-05-09T22:05:35.391Z,12.50
2024-05-09T22:07:27.330Z,12.51
2024-05-09T22:09:19.039Z,12.55
2024-05-09T22:11:10.899Z,12.63
2024-05-09T22:13:02.780Z,12.59
2024-05-09T22:14:54.543Z,12.69
2024-05-09T22:16:46.578Z,12.67
2024-05-09T22:18:37.196Z,12.75
2024-05-09T22:20:36.443Z,12.71
2024-05-09T22:22:30.819Z,12.70
2024-05-09T22:24:22.550Z,12.79
2024-05-09T22:26:14.263Z,12.66
2024-05-09T22:28:06.356Z,12.77
2024-05-09T22:29:58.687Z,12.77
2024-05-09T22:31:50.450Z,12.69
2024-05-09T22:33:44.705Z,12.56
2024-05-09T22:35:37.972Z,12.62
2024-05-09T22:37:29.687Z,12.52
2024-05-09T22:39:21.493Z,12.46
2024-05-09T22:41:13.341Z,12.45
2024-05-09T22:43:05.287Z,12.41
2024-05-09T22:44:57.228Z,12.33
2024-05-09T22:46:48.953Z,12.41
2024-05-09T22:48:40.897Z,12.25
2024-05-09T22:50:33.651Z,12.38
2024-05-09T22:52:25.911Z,12.28
2024-05-09T22:53:57.711Z,12.33
2024-05-09T22:55:30.008Z,12.30
2024-05-09T22:57:01.844Z,12.36
2024-05-09T22:58:33.843Z,12.34
2024-05-09T23:00:07.962Z,12.39
2024-05-09T23:01:41.849Z,12.36
2024-05-09T23:03:16.616Z,12.31
2024-05-09T23:04:48.649Z,12.22
2024-05-09T23:06:20.512Z,12.33
2024-05-09T23:07:52.445Z,12.29
2024-05-09T23:09:24.250Z,12.35
2024-05-09T23:10:56.352Z,12.28
2024-05-09T23:12:28.139Z,12.18
2024-05-09T23:14:00.101Z,12.21
2024-05-09T23:15:31.919Z,12.23
2024-05-09T23:17:04.071Z,12.23
2024-05-09T23:18:36.034Z,12.26
2024-05-09T23:20:11.543Z,12.29
2024-05-09T23:21:43.760Z,12.22
2024-05-09T23:23:15.560Z,12.26
2024-05-09T23:24:48.025Z,12.26
2024-05-09T23:26:39.905Z,12.28
2024-05-09T23:28:32.002Z,12.28
2024-05-09T23:30:33.560Z,12.05
2024-05-09T23:32:29.967Z,12.12
2024-05-09T23:34:21.899Z,12.24
2024-05-09T23:36:13.892Z,12.29
2024-05-09T23:38:06.274Z,12.25
2024-05-09T23:39:58.036Z,12.34
2024-05-09T23:41:49.810Z,12.35
2024-05-09T23:43:41.715Z,12.33
2024-05-09T23:45:33.897Z,12.30
2024-05-09T23:47:26.029Z,12.30
2024-05-09T23:49:17.994Z,12.24
2024-05-09T23:51:09.705Z,12.18
2024-05-09T23:53:01.503Z,12.11
2024-05-09T23:54:53.944Z,11.99
2024-05-09T23:56:45.675Z,12.10
2024-05-09T23:58:37.451Z,12.13
